sensor_id;sensor_type;location;lat;lon;timestamp;pressure;altitude;pressure_sealevel;temperature;humidity
74529;BME280;63009;52.584;5.932;2023-12-22T00:01:06;99671.91;;;7.13;90.26
74529;BME280;63009;52.584;5.932;2023-12-22T00:03:32;99673.72;;;7.13;90.50
74529;BME280;63009;52.584;5.932;2023-12-22T00:05:57;99681.94;;;7.35;87.67
74529;BME280;63009;52.584;5.932;2023-12-22T00:08:22;99678.94;;;7.27;88.17
74529;BME280;63009;52.584;5.932;2023-12-22T00:10:49;99688.88;;;7.36;87.48
74529;BME280;63009;52.584;5.932;2023-12-22T00:13:14;99681.00;;;7.36;87.52
74529;BME280;63009;52.584;5.932;2023-12-22T00:15:39;99696.78;;;7.22;88.32
74529;BME280;63009;52.584;5.932;2023-12-22T00:18:05;99688.06;;;7.22;87.07
74529;BME280;63009;52.584;5.932;2023-12-22T00:20:30;99691.63;;;7.21;87.70
74529;BME280;63009;52.584;5.932;2023-12-22T00:22:55;99693.97;;;7.25;88.99
74529;BME280;63009;52.584;5.932;2023-12-22T00:25:21;99703.91;;;7.34;87.47
74529;BME280;63009;52.584;5.932;2023-12-22T00:27:46;99694.72;;;7.13;89.00
74529;BME280;63009;52.584;5.932;2023-12-22T00:30:11;99704.00;;;7.60;87.36
74529;BME280;63009;52.584;5.932;2023-12-22T00:32:37;99711.75;;;7.49;85.85
74529;BME280;63009;52.584;5.932;2023-12-22T00:35:04;99687.31;;;7.20;87.35
74529;BME280;63009;52.584;5.932;2023-12-22T00:37:29;99701.31;;;7.20;87.32
74529;BME280;63009;52.584;5.932;2023-12-22T00:39:55;99712.44;;;7.38;86.28
74529;BME280;63009;52.584;5.932;2023-12-22T00:42:20;99712.19;;;7.55;86.63
74529;BME280;63009;52.584;5.932;2023-12-22T00:44:45;99718.19;;;7.16;89.63
74529;BME280;63009;52.584;5.932;2023-12-22T00:47:11;99720.00;;;7.42;88.38
74529;BME280;63009;52.584;5.932;2023-12-22T00:49:37;99707.84;;;7.27;89.50
74529;BME280;63009;52.584;5.932;2023-12-22T00:52:03;99720.53;;;7.35;89.14
74529;BME280;63009;52.584;5.932;2023-12-22T00:54:28;99731.88;;;7.35;87.67
74529;BME280;63009;52.584;5.932;2023-12-22T00:56:55;99721.81;;;7.42;87.60
74529;BME280;63009;52.584;5.932;2023-12-22T00:59:21;99730.44;;;7.44;86.65
74529;BME280;63009;52.584;5.932;2023-12-22T01:01:46;99710.78;;;7.23;88.07
74529;BME280;63009;52.584;5.932;2023-12-22T01:04:11;99721.63;;;7.31;89.10
74529;BME280;63009;52.584;5.932;2023-12-22T01:06:37;99720.69;;;7.46;89.28
74529;BME280;63009;52.584;5.932;2023-12-22T01:09:05;99721.94;;;7.26;90.29
74529;BME280;63009;52.584;5.932;2023-12-22T01:11:30;99707.47;;;7.33;90.58
74529;BME280;63009;52.584;5.932;2023-12-22T01:13:55;99711.19;;;7.43;90.23
74529;BME280;63009;52.584;5.932;2023-12-22T01:16:21;99717.03;;;7.34;91.36
74529;BME280;63009;52.584;5.932;2023-12-22T01:18:48;99718.63;;;7.37;90.21
74529;BME280;63009;52.584;5.932;2023-12-22T01:21:13;99718.72;;;7.35;91.08
74529;BME280;63009;52.584;5.932;2023-12-22T01:23:39;99722.44;;;7.45;91.64
74529;BME280;63009;52.584;5.932;2023-12-22T01:26:04;99719.03;;;7.58;92.31
74529;BME280;63009;52.584;5.932;2023-12-22T01:28:29;99735.56;;;7.60;93.46
74529;BME280;63009;52.584;5.932;2023-12-22T01:30:54;99749.91;;;7.68;94.46
74529;BME280;63009;52.584;5.932;2023-12-22T01:33:20;99746.03;;;7.74;96.07
74529;BME280;63009;52.584;5.932;2023-12-22T01:35:45;99757.94;;;7.53;95.08
74529;BME280;63009;52.584;5.932;2023-12-22T01:38:10;99760.59;;;7.24;100.00
74529;BME280;63009;52.584;5.932;2023-12-22T01:40:36;99756.28;;;7.37;100.00
74529;BME280;63009;52.584;5.932;2023-12-22T01:43:01;99747.56;;;7.08;100.00
74529;BME280;63009;52.584;5.932;2023-12-22T01:45:26;99741.91;;;6.58;98.07
74529;BME280;63009;52.584;5.932;2023-12-22T01:47:52;99776.72;;;6.45;98.09
74529;BME280;63009;52.584;5.932;2023-12-22T01:50:17;99779.16;;;6.34;98.57
74529;BME280;63009;52.584;5.932;2023-12-22T01:52:43;99782.69;;;6.33;97.06
74529;BME280;63009;52.584;5.932;2023-12-22T01:55:10;99783.75;;;6.15;96.16
74529;BME280;63009;52.584;5.932;2023-12-22T01:57:37;99774.13;;;6.00;95.44
74529;BME280;63009;52.584;5.932;2023-12-22T02:00:03;99777.28;;;6.06;94.92
74529;BME280;63009;52.584;5.932;2023-12-22T02:02:30;99777.97;;;5.94;96.10
74529;BME280;63009;52.584;5.932;2023-12-22T02:04:57;99782.09;;;5.98;95.75
74529;BME280;63009;52.584;5.932;2023-12-22T02:07:22;99782.53;;;6.06;95.35
74529;BME280;63009;52.584;5.932;2023-12-22T02:09:47;99780.22;;;6.00;96.51
74529;BME280;63009;52.584;5.932;2023-12-22T02:12:13;99777.56;;;6.16;96.83
74529;BME280;63009;52.584;5.932;2023-12-22T02:14:38;99766.25;;;6.15;96.90
74529;BME280;63009;52.584;5.932;2023-12-22T02:19:43;99772.09;;;6.20;99.21
74529;BME280;63009;52.584;5.932;2023-12-22T02:22:12;99770.97;;;6.24;99.38
74529;BME280;63009;52.584;5.932;2023-12-22T02:24:39;99764.41;;;6.32;99.41
74529;BME280;63009;52.584;5.932;2023-12-22T02:29:42;99774.63;;;6.52;100.00
74529;BME280;63009;52.584;5.932;2023-12-22T02:32:13;99773.91;;;6.78;100.00
74529;BME280;63009;52.584;5.932;2023-12-22T02:34:41;99767.06;;;6.62;100.00
74529;BME280;63009;52.584;5.932;2023-12-22T02:37:09;99767.91;;;6.76;100.00
74529;BME280;63009;52.584;5.932;2023-12-22T02:39:35;99760.03;;;6.76;100.00
74529;BME280;63009;52.584;5.932;2023-12-22T02:42:03;99764.63;;;6.87;100.00
74529;BME280;63009;52.584;5.932;2023-12-22T02:44:29;99762.56;;;6.78;100.00
74529;BME280;63009;52.584;5.932;2023-12-22T02:46:55;99756.47;;;6.92;100.00
74529;BME280;63009;52.584;5.932;2023-12-22T02:49:20;99754.56;;;6.65;100.00
74529;BME280;63009;52.584;5.932;2023-12-22T02:51:45;99753.00;;;6.77;100.00
74529;BME280;63009;52.584;5.932;2023-12-22T02:54:11;99749.66;;;6.45;100.00
74529;BME280;63009;52.584;5.932;2023-12-22T02:56:36;99737.97;;;6.65;100.00
74529;BME280;63009;52.584;5.932;2023-12-22T02:59:01;99739.91;;;6.61;100.00
74529;BME280;63009;52.584;5.932;2023-12-22T03:01:27;99760.03;;;6.76;100.00
74529;BME280;63009;52.584;5.932;2023-12-22T03:03:52;99769.41;;;6.80;100.00
74529;BME280;63009;52.584;5.932;2023-12-22T03:06:17;99785.50;;;6.74;100.00
74529;BME280;63009;52.584;5.932;2023-12-22T03:08:42;99769.06;;;6.57;100.00
74529;BME280;63009;52.584;5.932;2023-12-22T03:11:08;99784.75;;;6.58;100.00
74529;BME280;63009;52.584;5.932;2023-12-22T03:13:33;99781.94;;;6.61;100.00
74529;BME280;63009;52.584;5.932;2023-12-22T03:15:58;99788.44;;;6.40;100.00
74529;BME280;63009;52.584;5.932;2023-12-22T03:18:24;99775.97;;;6.43;100.00
74529;BME280;63009;52.584;5.932;2023-12-22T03:20:49;99770.50;;;6.32;100.00
74529;BME280;63009;52.584;5.932;2023-12-22T03:23:14;99764.59;;;6.29;100.00
74529;BME280;63009;52.584;5.932;2023-12-22T03:25:40;99773.72;;;6.07;100.00
74529;BME280;63009;52.584;5.932;2023-12-22T03:28:05;99770.13;;;6.24;100.00
74529;BME280;63009;52.584;5.932;2023-12-22T03:30:30;99775.41;;;6.08;100.00
74529;BME280;63009;52.584;5.932;2023-12-22T03:32:55;99779.16;;;6.18;100.00
74529;BME280;63009;52.584;5.932;2023-12-22T03:35:21;99755.34;;;6.07;100.00
74529;BME280;63009;52.584;5.932;2023-12-22T03:37:46;99775.47;;;6.22;100.00
74529;BME280;63009;52.584;5.932;2023-12-22T03:40:11;99776.50;;;6.20;100.00
74529;BME280;63009;52.584;5.932;2023-12-22T03:42:37;99779.81;;;6.08;100.00
74529;BME280;63009;52.584;5.932;2023-12-22T03:45:02;99791.38;;;6.19;100.00
74529;BME280;63009;52.584;5.932;2023-12-22T03:47:28;99773.44;;;6.12;100.00
74529;BME280;63009;52.584;5.932;2023-12-22T03:49:53;99777.53;;;6.32;100.00
74529;BME280;63009;52.584;5.932;2023-12-22T03:52:18;99785.16;;;6.36;100.00
74529;BME280;63009;52.584;5.932;2023-12-22T03:54:44;99765.53;;;6.28;100.00
74529;BME280;63009;52.584;5.932;2023-12-22T03:57:09;99765.00;;;6.37;100.00
74529;BME280;63009;52.584;5.932;2023-12-22T03:59:34;99764.25;;;6.35;100.00
74529;BME280;63009;52.584;5.932;2023-12-22T04:02:00;99777.09;;;6.39;100.00
74529;BME280;63009;52.584;5.932;2023-12-22T04:04:26;99778.41;;;6.46;100.00
74529;BME280;63009;52.584;5.932;2023-12-22T04:06:53;99774.25;;;6.58;100.00
74529;BME280;63009;52.584;5.932;2023-12-22T04:09:18;99780.47;;;6.85;100.00
74529;BME280;63009;52.584;5.932;2023-12-22T04:11:44;99765.63;;;6.70;100.00
74529;BME280;63009;52.584;5.932;2023-12-22T04:14:09;99778.22;;;6.65;100.00
74529;BME280;63009;52.584;5.932;2023-12-22T04:16:36;99783.69;;;6.91;100.00
74529;BME280;63009;52.584;5.932;2023-12-22T04:19:04;99798.31;;;6.80;100.00
74529;BME280;63009;52.584;5.932;2023-12-22T04:21:29;99798.19;;;6.68;100.00
74529;BME280;63009;52.584;5.932;2023-12-22T04:23:55;99817.59;;;6.65;100.00
74529;BME280;63009;52.584;5.932;2023-12-22T04:26:20;99815.25;;;6.75;100.00
74529;BME280;63009;52.584;5.932;2023-12-22T04:28:45;99808.16;;;6.77;100.00
74529;BME280;63009;52.584;5.932;2023-12-22T04:31:11;99807.22;;;6.92;100.00
74529;BME280;63009;52.584;5.932;2023-12-22T04:33:36;99814.91;;;6.81;100.00
74529;BME280;63009;52.584;5.932;2023-12-22T04:36:01;99821.66;;;6.85;100.00
74529;BME280;63009;52.584;5.932;2023-12-22T04:38:27;99813.41;;;6.77;99.75
74529;BME280;63009;52.584;5.932;2023-12-22T04:40:52;99804.69;;;6.91;98.17
74529;BME280;63009;52.584;5.932;2023-12-22T04:43:18;99808.22;;;6.90;95.60
74529;BME280;63009;52.584;5.932;2023-12-22T04:45:43;99817.84;;;7.05;95.92
74529;BME280;63009;52.584;5.932;2023-12-22T04:48:08;99839.63;;;7.07;94.37
74529;BME280;63009;52.584;5.932;2023-12-22T04:50:33;99821.13;;;7.08;94.00
74529;BME280;63009;52.584;5.932;2023-12-22T04:52:59;99815.03;;;7.08;94.89
74529;BME280;63009;52.584;5.932;2023-12-22T04:55:24;99806.13;;;7.10;96.11
74529;BME280;63009;52.584;5.932;2023-12-22T04:57:49;99815.41;;;7.16;98.13
74529;BME280;63009;52.584;5.932;2023-12-22T05:00:15;99821.78;;;7.26;100.00
74529;BME280;63009;52.584;5.932;2023-12-22T05:02:40;99827.59;;;7.31;100.00
74529;BME280;63009;52.584;5.932;2023-12-22T05:05:07;99819.25;;;7.25;100.00
74529;BME280;63009;52.584;5.932;2023-12-22T05:07:33;99835.69;;;7.28;100.00
74529;BME280;63009;52.584;5.932;2023-12-22T05:09:59;99818.31;;;7.11;100.00
74529;BME280;63009;52.584;5.932;2023-12-22T05:12:24;99820.56;;;7.18;100.00
74529;BME280;63009;52.584;5.932;2023-12-22T05:14:49;99825.75;;;7.19;100.00
74529;BME280;63009;52.584;5.932;2023-12-22T05:17:15;99833.25;;;7.25;99.06
74529;BME280;63009;52.584;5.932;2023-12-22T05:19:40;99828.28;;;7.21;99.16
74529;BME280;63009;52.584;5.932;2023-12-22T05:22:05;99831.75;;;7.07;100.00
74529;BME280;63009;52.584;5.932;2023-12-22T05:24:30;99831.56;;;7.24;100.00
74529;BME280;63009;52.584;5.932;2023-12-22T05:26:56;99828.19;;;7.36;99.45
74529;BME280;63009;52.584;5.932;2023-12-22T05:29:21;99837.47;;;7.42;99.86
74529;BME280;63009;52.584;5.932;2023-12-22T05:31:46;99839.84;;;7.47;100.00
74529;BME280;63009;52.584;5.932;2023-12-22T05:34:12;99828.38;;;7.48;99.59
74529;BME280;63009;52.584;5.932;2023-12-22T05:36:37;99827.44;;;7.49;100.00
74529;BME280;63009;52.584;5.932;2023-12-22T05:39:02;99825.16;;;7.42;100.00
74529;BME280;63009;52.584;5.932;2023-12-22T05:41:28;99838.31;;;7.42;100.00
74529;BME280;63009;52.584;5.932;2023-12-22T05:43:53;99836.72;;;7.40;100.00
74529;BME280;63009;52.584;5.932;2023-12-22T05:46:19;99826.28;;;7.53;100.00
74529;BME280;63009;52.584;5.932;2023-12-22T05:48:44;99820.56;;;7.60;100.00
74529;BME280;63009;52.584;5.932;2023-12-22T05:51:09;99818.75;;;7.75;99.87
74529;BME280;63009;52.584;5.932;2023-12-22T05:53:39;99819.34;;;7.66;100.00
74529;BME280;63009;52.584;5.932;2023-12-22T05:56:16;99817.00;;;7.61;100.00
74529;BME280;63009;52.584;5.932;2023-12-22T05:58:41;99832.34;;;7.82;100.00
74529;BME280;63009;52.584;5.932;2023-12-22T06:01:06;99818.47;;;7.80;100.00
74529;BME280;63009;52.584;5.932;2023-12-22T06:03:32;99815.44;;;7.86;100.00
74529;BME280;63009;52.584;5.932;2023-12-22T06:05:57;99820.06;;;7.82;100.00
74529;BME280;63009;52.584;5.932;2023-12-22T06:08:22;99844.00;;;7.92;100.00
74529;BME280;63009;52.584;5.932;2023-12-22T06:10:48;99833.38;;;7.93;100.00
74529;BME280;63009;52.584;5.932;2023-12-22T06:13:13;99822.75;;;7.95;100.00
74529;BME280;63009;52.584;5.932;2023-12-22T06:15:39;99836.41;;;7.73;100.00
74529;BME280;63009;52.584;5.932;2023-12-22T06:18:04;99824.88;;;7.76;100.00
74529;BME280;63009;52.584;5.932;2023-12-22T06:20:29;99850.50;;;7.43;100.00
74529;BME280;63009;52.584;5.932;2023-12-22T06:22:55;99855.59;;;7.47;100.00
74529;BME280;63009;52.584;5.932;2023-12-22T06:25:20;99866.75;;;7.22;100.00
74529;BME280;63009;52.584;5.932;2023-12-22T06:27:45;99865.97;;;6.91;100.00
74529;BME280;63009;52.584;5.932;2023-12-22T06:30:11;99854.34;;;6.65;100.00
74529;BME280;63009;52.584;5.932;2023-12-22T06:32:36;99837.66;;;6.66;100.00
74529;BME280;63009;52.584;5.932;2023-12-22T06:35:05;99834.56;;;6.74;100.00
74529;BME280;63009;52.584;5.932;2023-12-22T06:37:30;99859.81;;;6.76;100.00
74529;BME280;63009;52.584;5.932;2023-12-22T06:39:55;99871.13;;;6.93;100.00
74529;BME280;63009;52.584;5.932;2023-12-22T06:42:21;99868.28;;;6.81;100.00
74529;BME280;63009;52.584;5.932;2023-12-22T06:44:46;99865.91;;;6.77;100.00
74529;BME280;63009;52.584;5.932;2023-12-22T06:47:11;99843.91;;;6.94;100.00
74529;BME280;63009;52.584;5.932;2023-12-22T06:49:37;99836.09;;;6.78;100.00
74529;BME280;63009;52.584;5.932;2023-12-22T06:52:02;99848.91;;;6.68;100.00
74529;BME280;63009;52.584;5.932;2023-12-22T06:54:27;99848.06;;;6.68;100.00
74529;BME280;63009;52.584;5.932;2023-12-22T06:56:54;99846.38;;;6.67;100.00
74529;BME280;63009;52.584;5.932;2023-12-22T06:59:19;99843.16;;;6.92;100.00
74529;BME280;63009;52.584;5.932;2023-12-22T07:01:45;99841.28;;;6.94;100.00
74529;BME280;63009;52.584;5.932;2023-12-22T07:04:10;99834.56;;;6.74;100.00
74529;BME280;63009;52.584;5.932;2023-12-22T07:06:35;99853.47;;;6.95;100.00
74529;BME280;63009;52.584;5.932;2023-12-22T07:11:47;99877.25;;;7.22;100.00
74529;BME280;63009;52.584;5.932;2023-12-22T07:14:13;99886.94;;;7.21;100.00
74529;BME280;63009;52.584;5.932;2023-12-22T07:16:39;99870.38;;;6.91;100.00
74529;BME280;63009;52.584;5.932;2023-12-22T07:19:04;99868.78;;;7.17;100.00
74529;BME280;63009;52.584;5.932;2023-12-22T07:21:30;99859.38;;;6.98;100.00
74529;BME280;63009;52.584;5.932;2023-12-22T07:23:56;99849.84;;;7.11;100.00
74529;BME280;63009;52.584;5.932;2023-12-22T07:26:21;99862.94;;;6.97;100.00
74529;BME280;63009;52.584;5.932;2023-12-22T07:28:49;99853.38;;;6.96;100.00
74529;BME280;63009;52.584;5.932;2023-12-22T07:31:14;99857.94;;;6.78;100.00
74529;BME280;63009;52.584;5.932;2023-12-22T07:33:40;99865.16;;;6.89;100.00
74529;BME280;63009;52.584;5.932;2023-12-22T07:36:06;99873.69;;;6.78;100.00
74529;BME280;63009;52.584;5.932;2023-12-22T07:38:31;99873.59;;;6.80;100.00
74529;BME280;63009;52.584;5.932;2023-12-22T07:40:57;99885.75;;;6.97;100.00
74529;BME280;63009;52.584;5.932;2023-12-22T07:43:22;99897.38;;;6.93;100.00
74529;BME280;63009;52.584;5.932;2023-12-22T07:45:48;99870.63;;;6.86;100.00
74529;BME280;63009;52.584;5.932;2023-12-22T07:48:15;99886.19;;;7.19;100.00
74529;BME280;63009;52.584;5.932;2023-12-22T07:50:41;99875.56;;;7.06;100.00
74529;BME280;63009;52.584;5.932;2023-12-22T07:53:07;99865.78;;;6.94;100.00
74529;BME280;63009;52.584;5.932;2023-12-22T07:55:33;99858.72;;;6.95;100.00
74529;BME280;63009;52.584;5.932;2023-12-22T07:57:59;99856.47;;;7.03;100.00
74529;BME280;63009;52.584;5.932;2023-12-22T08:00:24;99860.34;;;7.11;100.00
74529;BME280;63009;52.584;5.932;2023-12-22T08:02:50;99850.59;;;7.28;100.00
74529;BME280;63009;52.584;5.932;2023-12-22T08:05:15;99853.88;;;7.31;100.00
74529;BME280;63009;52.584;5.932;2023-12-22T08:07:41;99855.22;;;7.53;100.00
74529;BME280;63009;52.584;5.932;2023-12-22T08:10:06;99848.28;;;7.37;100.00
74529;BME280;63009;52.584;5.932;2023-12-22T08:12:32;99847.13;;;7.56;100.00
74529;BME280;63009;52.584;5.932;2023-12-22T08:14:58;99816.53;;;7.55;100.00
74529;BME280;63009;52.584;5.932;2023-12-22T08:17:23;99831.16;;;7.59;100.00
74529;BME280;63009;52.584;5.932;2023-12-22T08:19:49;99846.59;;;7.51;100.00
74529;BME280;63009;52.584;5.932;2023-12-22T08:22:15;99843.13;;;7.36;100.00
74529;BME280;63009;52.584;5.932;2023-12-22T08:24:40;99823.66;;;7.53;100.00
74529;BME280;63009;52.584;5.932;2023-12-22T08:27:07;99809.38;;;7.57;100.00
74529;BME280;63009;52.584;5.932;2023-12-22T08:29:32;99831.66;;;7.51;100.00
74529;BME280;63009;52.584;5.932;2023-12-22T08:31:58;99839.63;;;7.35;100.00
74529;BME280;63009;52.584;5.932;2023-12-22T08:34:23;99822.25;;;7.61;100.00
74529;BME280;63009;52.584;5.932;2023-12-22T08:36:49;99826.69;;;7.47;100.00
74529;BME280;63009;52.584;5.932;2023-12-22T08:39:14;99831.38;;;7.41;100.00
74529;BME280;63009;52.584;5.932;2023-12-22T08:41:40;99820.94;;;7.40;100.00
74529;BME280;63009;52.584;5.932;2023-12-22T08:44:06;99816.34;;;7.43;100.00
74529;BME280;63009;52.584;5.932;2023-12-22T08:46:32;99786.13;;;7.51;100.00
74529;BME280;63009;52.584;5.932;2023-12-22T08:48:57;99805.91;;;7.56;100.00
74529;BME280;63009;52.584;5.932;2023-12-22T08:51:27;99805.44;;;7.64;100.00
74529;BME280;63009;52.584;5.932;2023-12-22T08:53:53;99824.94;;;7.74;100.00
74529;BME280;63009;52.584;5.932;2023-12-22T08:56:20;99797.16;;;7.70;100.00
74529;BME280;63009;52.584;5.932;2023-12-22T08:58:46;99805.41;;;7.78;100.00
74529;BME280;63009;52.584;5.932;2023-12-22T09:01:15;99816.47;;;7.83;100.00
74529;BME280;63009;52.584;5.932;2023-12-22T09:03:40;99812.03;;;7.98;100.00
74529;BME280;63009;52.584;5.932;2023-12-22T09:06:11;99809.69;;;7.93;100.00
74529;BME280;63009;52.584;5.932;2023-12-22T09:08:38;99809.78;;;7.92;100.00
74529;BME280;63009;52.584;5.932;2023-12-22T09:11:03;99812.31;;;7.93;100.00
74529;BME280;63009;52.584;5.932;2023-12-22T09:13:28;99809.00;;;8.04;100.00
74529;BME280;63009;52.584;5.932;2023-12-22T09:15:56;99799.97;;;8.08;100.00
74529;BME280;63009;52.584;5.932;2023-12-22T09:18:22;99833.81;;;8.00;100.00
74529;BME280;63009;52.584;5.932;2023-12-22T09:20:48;99824.63;;;7.93;100.00
74529;BME280;63009;52.584;5.932;2023-12-22T09:23:14;99817.25;;;7.71;100.00
74529;BME280;63009;52.584;5.932;2023-12-22T09:25:39;99799.53;;;7.60;100.00
74529;BME280;63009;52.584;5.932;2023-12-22T09:28:04;99823.72;;;7.80;100.00
74529;BME280;63009;52.584;5.932;2023-12-22T09:30:30;99837.91;;;7.91;100.00
74529;BME280;63009;52.584;5.932;2023-12-22T09:32:57;99835.84;;;7.82;100.00
74529;BME280;63009;52.584;5.932;2023-12-22T09:35:22;99858.38;;;7.72;100.00
74529;BME280;63009;52.584;5.932;2023-12-22T09:37:49;99850.91;;;7.52;100.00
74529;BME280;63009;52.584;5.932;2023-12-22T09:40:15;99840.94;;;7.28;100.00
74529;BME280;63009;52.584;5.932;2023-12-22T09:42:40;99826.59;;;7.34;100.00
74529;BME280;63009;52.584;5.932;2023-12-22T09:45:08;99847.31;;;7.53;100.00
74529;BME280;63009;52.584;5.932;2023-12-22T09:47:35;99860.84;;;7.32;100.00
74529;BME280;63009;52.584;5.932;2023-12-22T09:50:01;99856.50;;;7.45;100.00
74529;BME280;63009;52.584;5.932;2023-12-22T09:52:30;99851.84;;;7.51;100.00
74529;BME280;63009;52.584;5.932;2023-12-22T09:54:57;99849.56;;;7.30;100.00
74529;BME280;63009;52.584;5.932;2023-12-22T09:57:24;99849.56;;;7.44;100.00
74529;BME280;63009;52.584;5.932;2023-12-22T09:59:51;99851.94;;;7.35;100.00
74529;BME280;63009;52.584;5.932;2023-12-22T10:02:17;99844.16;;;7.48;100.00
74529;BME280;63009;52.584;5.932;2023-12-22T10:04:43;99875.22;;;7.41;100.00
74529;BME280;63009;52.584;5.932;2023-12-22T10:07:09;99860.47;;;7.38;100.00
74529;BME280;63009;52.584;5.932;2023-12-22T10:09:36;99864.59;;;7.28;100.00
74529;BME280;63009;52.584;5.932;2023-12-22T10:12:03;99862.16;;;7.25;100.00
74529;BME280;63009;52.584;5.932;2023-12-22T10:14:29;99861.53;;;6.92;100.00
74529;BME280;63009;52.584;5.932;2023-12-22T10:16:55;99856.28;;;6.92;100.00
74529;BME280;63009;52.584;5.932;2023-12-22T10:19:21;99852.81;;;6.91;100.00
74529;BME280;63009;52.584;5.932;2023-12-22T10:21:48;99863.50;;;7.02;100.00
74529;BME280;63009;52.584;5.932;2023-12-22T10:24:42;99870.13;;;7.24;100.00
74529;BME280;63009;52.584;5.932;2023-12-22T10:27:11;99876.13;;;7.11;100.00
74529;BME280;63009;52.584;5.932;2023-12-22T10:29:37;99894.78;;;7.07;100.00
74529;BME280;63009;52.584;5.932;2023-12-22T10:32:03;99894.50;;;7.11;100.00
74529;BME280;63009;52.584;5.932;2023-12-22T10:34:30;99877.25;;;7.07;100.00
74529;BME280;63009;52.584;5.932;2023-12-22T10:36:56;99881.66;;;7.07;100.00
74529;BME280;63009;52.584;5.932;2023-12-22T10:39:22;99889.34;;;7.10;100.00
74529;BME280;63009;52.584;5.932;2023-12-22T10:41:48;99872.00;;;6.77;100.00
74529;BME280;63009;52.584;5.932;2023-12-22T10:44:14;99863.38;;;6.90;100.00
74529;BME280;63009;52.584;5.932;2023-12-22T10:46:42;99837.22;;;6.88;100.00
74529;BME280;63009;52.584;5.932;2023-12-22T10:49:07;99838.28;;;7.14;100.00
74529;BME280;63009;52.584;5.932;2023-12-22T10:51:33;99827.13;;;7.10;100.00
74529;BME280;63009;52.584;5.932;2023-12-22T10:53:58;99835.97;;;7.09;100.00
74529;BME280;63009;52.584;5.932;2023-12-22T10:56:28;99826.38;;;7.08;100.00
74529;BME280;63009;52.584;5.932;2023-12-22T10:58:53;99830.50;;;6.98;100.00
74529;BME280;63009;52.584;5.932;2023-12-22T11:01:20;99824.22;;;7.15;100.00
74529;BME280;63009;52.584;5.932;2023-12-22T11:03:48;99810.63;;;7.23;100.00
74529;BME280;63009;52.584;5.932;2023-12-22T11:06:15;99817.47;;;7.25;100.00
74529;BME280;63009;52.584;5.932;2023-12-22T11:08:43;99828.38;;;7.33;100.00
74529;BME280;63009;52.584;5.932;2023-12-22T11:11:27;99834.09;;;7.26;100.00
74529;BME280;63009;52.584;5.932;2023-12-22T11:13:56;99834.47;;;7.34;100.00
74529;BME280;63009;52.584;5.932;2023-12-22T11:16:23;99820.75;;;7.29;100.00
74529;BME280;63009;52.584;5.932;2023-12-22T11:18:49;99810.72;;;7.35;100.00
74529;BME280;63009;52.584;5.932;2023-12-22T11:21:19;99815.59;;;7.27;100.00
74529;BME280;63009;52.584;5.932;2023-12-22T11:23:47;99790.44;;;7.09;100.00
74529;BME280;63009;52.584;5.932;2023-12-22T11:26:13;99793.28;;;7.34;100.00
74529;BME280;63009;52.584;5.932;2023-12-22T11:28:41;99803.09;;;7.31;100.00
74529;BME280;63009;52.584;5.932;2023-12-22T11:31:10;99797.19;;;7.27;100.00
74529;BME280;63009;52.584;5.932;2023-12-22T11:33:36;99791.66;;;7.32;100.00
74529;BME280;63009;52.584;5.932;2023-12-22T11:36:03;99799.06;;;7.25;100.00
74529;BME280;63009;52.584;5.932;2023-12-22T11:38:29;99799.72;;;7.14;100.00
74529;BME280;63009;52.584;5.932;2023-12-22T11:40:54;99798.53;;;7.20;100.00
74529;BME280;63009;52.584;5.932;2023-12-22T11:43:21;99807.50;;;7.16;100.00
74529;BME280;63009;52.584;5.932;2023-12-22T11:45:49;99794.56;;;7.13;100.00
74529;BME280;63009;52.584;5.932;2023-12-22T11:48:15;99776.81;;;7.45;100.00
74529;BME280;63009;52.584;5.932;2023-12-22T11:50:41;99767.22;;;7.44;100.00
74529;BME280;63009;52.584;5.932;2023-12-22T11:53:18;99758.97;;;7.50;100.00
74529;BME280;63009;52.584;5.932;2023-12-22T11:58:41;99768.38;;;7.40;100.00
74529;BME280;63009;52.584;5.932;2023-12-22T12:03:36;99773.09;;;7.35;100.00
74529;BME280;63009;52.584;5.932;2023-12-22T12:08:47;99756.56;;;7.33;100.00
74529;BME280;63009;52.584;5.932;2023-12-22T12:11:14;99761.59;;;7.50;100.00
74529;BME280;63009;52.584;5.932;2023-12-22T12:13:43;99763.00;;;7.56;100.00
74529;BME280;63009;52.584;5.932;2023-12-22T12:16:18;99748.00;;;7.29;100.00
74529;BME280;63009;52.584;5.932;2023-12-22T12:18:44;99767.81;;;7.49;100.00
74529;BME280;63009;52.584;5.932;2023-12-22T12:21:10;99774.84;;;7.49;100.00
74529;BME280;63009;52.584;5.932;2023-12-22T12:23:37;99769.94;;;7.57;100.00
74529;BME280;63009;52.584;5.932;2023-12-22T12:26:03;99766.78;;;7.37;100.00
74529;BME280;63009;52.584;5.932;2023-12-22T12:28:32;99772.97;;;7.51;100.00
74529;BME280;63009;52.584;5.932;2023-12-22T12:31:05;99748.22;;;7.26;100.00
74529;BME280;63009;52.584;5.932;2023-12-22T12:33:30;99752.22;;;7.46;100.00
74529;BME280;63009;52.584;5.932;2023-12-22T12:35:58;99730.56;;;7.28;100.00
74529;BME280;63009;52.584;5.932;2023-12-22T12:41:05;99744.81;;;7.38;100.00
74529;BME280;63009;52.584;5.932;2023-12-22T12:43:31;99741.06;;;7.28;100.00
74529;BME280;63009;52.584;5.932;2023-12-22T12:46:05;99758.44;;;7.17;100.00
74529;BME280;63009;52.584;5.932;2023-12-22T12:48:31;99744.94;;;7.23;100.00
74529;BME280;63009;52.584;5.932;2023-12-22T12:51:04;99743.78;;;7.27;100.00
74529;BME280;63009;52.584;5.932;2023-12-22T12:53:33;99742.94;;;7.26;100.00
74529;BME280;63009;52.584;5.932;2023-12-22T12:56:00;99740.69;;;7.34;100.00
74529;BME280;63009;52.584;5.932;2023-12-22T12:58:32;99725.28;;;7.42;100.00
74529;BME280;63009;52.584;5.932;2023-12-22T13:01:05;99721.06;;;7.40;100.00
74529;BME280;63009;52.584;5.932;2023-12-22T13:03:31;99722.31;;;7.34;100.00
74529;BME280;63009;52.584;5.932;2023-12-22T13:06:09;99733.63;;;7.49;100.00
74529;BME280;63009;52.584;5.932;2023-12-22T13:08:34;99730.66;;;7.68;100.00
74529;BME280;63009;52.584;5.932;2023-12-22T13:11:00;99717.97;;;7.74;100.00
74529;BME280;63009;52.584;5.932;2023-12-22T13:13:29;99704.00;;;7.87;100.00
74529;BME280;63009;52.584;5.932;2023-12-22T13:15:55;99736.47;;;7.73;100.00